• Join FlightAware (Why Join?)
  • Login
  • US Flag 
04:25PM EDT


 

Airport Tracker/Info


-or-


 

Live Flight TrackerFlight Track Log ✈ CSZ9858 ✈ 17-Jul-2013 ✈ ZYCC / CGQ - ZSNJ / NKG

Flight Track Log - Related Links

Times and Time Zones

All times are in EDT time to prevent confusion due to time zone crossing. See the CSZ9858 flight status page for this flight to view local times or setup timezone preferences in your user account.

Time Position Orientation Groundspeed Altitude Reporting Facility
EDT Latitude Longitude Course Direction KTS MPH feet Rate Location/Type
06:50AM 43.2189 124.7704 204° Southwest  Level Estimated
06:51AM 43.1206 124.7102 204° Southwest  Level Estimated
06:52AM 43.0222 124.6501 204° Southwest  Level Estimated
06:53AM 42.9237 124.5903 204° Southwest  Level Estimated
06:54AM 42.8253 124.5307 204° Southwest  Level Estimated
06:55AM 42.7268 124.4712 204° Southwest  Level Estimated
06:56AM 42.6283 124.4120 204° Southwest  Level Estimated
06:57AM 42.5297 124.3529 204° Southwest  Level Estimated
06:58AM 42.4311 124.2940 204° Southwest  Level Estimated
06:59AM 42.3325 124.2353 204° Southwest  Level Estimated
07:00AM 42.2339 124.1768 204° Southwest  Level Estimated
07:01AM 42.1352 124.1184 204° Southwest  Level Estimated
07:02AM 42.0365 124.0603 204° Southwest  Level Estimated
07:03AM 41.9378 124.0023 204° Southwest  Level Estimated
07:04AM 41.8390 123.9445 204° Southwest  Level Estimated
07:05AM 41.7402 123.8869 204° Southwest  Level Estimated
07:06AM 41.6414 123.8295 203° Southwest  Level Estimated
07:07AM 41.5426 123.7722 203° Southwest  Level Estimated
07:08AM 41.4437 123.7151 203° Southwest  Level Estimated
07:09AM 41.3448 123.6582 203° Southwest  Level Estimated
07:10AM 41.2459 123.6015 203° Southwest  Level Estimated
07:11AM 41.1469 123.5449 203° Southwest  Level Estimated
07:12AM 41.0480 123.4885 203° Southwest  Level Estimated
07:13AM 40.9490 123.4323 203° Southwest  Level Estimated
07:14AM 40.8499 123.3762 203° Southwest  Level Estimated
07:15AM 40.7509 123.3203 203° Southwest  Level Estimated
07:16AM 40.6518 123.2646 203° Southwest  Level Estimated
07:17AM 40.5527 123.2090 203° Southwest  Level Estimated
07:18AM 40.4535 123.1536 203° Southwest  Level Estimated
07:19AM 40.3543 123.0984 203° Southwest  Level Estimated
07:20AM 40.2551 123.0433 203° Southwest  Level Estimated
07:21AM 40.1559 122.9884 203° Southwest  Level Estimated
07:22AM 40.0567 122.9336 203° Southwest  Level Estimated
07:23AM 39.9574 122.8791 203° Southwest  Level Estimated
07:24AM 39.8581 122.8246 203° Southwest  Level Estimated
07:25AM 39.7588 122.7703 203° Southwest  Level Estimated
07:26AM 39.6594 122.7162 203° Southwest  Level Estimated
07:27AM 39.5601 122.6622 203° Southwest  Level Estimated
07:28AM 39.4607 122.6084 203° Southwest  Level Estimated
07:29AM 39.3612 122.5548 203° Southwest  Level Estimated
07:30AM 39.2618 122.5013 203° Southwest  Level Estimated
07:31AM 39.1623 122.4479 203° Southwest  Level Estimated
07:32AM 39.0628 122.3947 203° Southwest  Level Estimated
07:33AM 38.9633 122.3417 203° Southwest  Level Estimated
07:34AM 38.8638 122.2888 202° Southwest  Level Estimated
07:35AM 38.7642 122.2360 202° Southwest  Level Estimated
07:36AM 38.6646 122.1834 202° Southwest  Level Estimated
07:37AM 38.5650 122.1309 202° Southwest  Level Estimated
07:38AM 38.4653 122.0786 202° Southwest  Level Estimated
07:39AM 38.3657 122.0264 202° Southwest  Level Estimated
07:40AM 38.2660 121.9744 202° Southwest  Level Estimated
07:41AM 38.1663 121.9225 202° Southwest  Level Estimated
07:42AM 38.0665 121.8708 202° Southwest  Level Estimated
07:43AM 37.9668 121.8192 202° Southwest  Level Estimated
07:44AM 37.8670 121.7677 202° Southwest  Level Estimated
07:45AM 37.7672 121.7164 202° Southwest  Level Estimated
07:46AM 37.6674 121.6652 202° Southwest  Level Estimated
07:47AM 37.5676 121.6141 202° Southwest  Level Estimated
07:48AM 37.4677 121.5632 202° Southwest  Level Estimated
07:49AM 37.3678 121.5124 202° Southwest  Level Estimated
07:50AM 37.2679 121.4618 202° Southwest  Level Estimated
07:51AM 37.1679 121.4113 202° Southwest  Level Estimated
07:52AM 37.0680 121.3609 202° Southwest  Level Estimated
07:53AM 36.9680 121.3107 202° Southwest  Level Estimated
07:54AM 36.8680 121.2606 202° Southwest  Level Estimated
07:55AM 36.7680 121.2106 202° Southwest  Level Estimated
07:56AM 36.6680 121.1607 202° Southwest  Level Estimated
07:57AM 36.5679 121.1110 202° Southwest  Level Estimated
07:58AM 36.4678 121.0614 202° Southwest  Level Estimated
07:59AM 36.3677 121.0120 202° Southwest  Level Estimated
08:00AM 36.2676 120.9626 202° Southwest  Level Estimated
08:01AM 36.1675 120.9134 202° Southwest  Level Estimated
08:02AM 36.0673 120.8643 202° Southwest  Level Estimated
08:03AM 35.9671 120.8154 202° Southwest  Level Estimated
08:04AM 35.8669 120.7665 202° Southwest  Level Estimated
08:05AM 35.7667 120.7178 202° Southwest  Level Estimated
08:06AM 35.6665 120.6692 201° Southwest  Level Estimated
08:07AM 35.5662 120.6208 201° Southwest  Level Estimated
08:08AM 35.4659 120.5724 201° Southwest  Level Estimated
08:09AM 35.3656 120.5242 201° Southwest  Level Estimated
08:10AM 35.2653 120.4761 201° Southwest  Level Estimated
08:11AM 35.1650 120.4281 201° Southwest  Level Estimated
08:12AM 35.0647 120.3802 201° Southwest  Level Estimated
08:13AM 34.9643 120.3325 201° Southwest  Level Estimated
08:14AM 34.8639 120.2848 201° Southwest  Level Estimated
08:15AM 34.7635 120.2373 201° Southwest  Level Estimated
08:16AM 34.6631 120.1899 201° Southwest  Level Estimated
08:17AM 34.5626 120.1426 201° Southwest  Level Estimated
08:18AM 34.4621 120.0955 201° Southwest  Level Estimated
08:19AM 34.3617 120.0484 201° Southwest  Level Estimated
08:20AM 34.2612 120.0014 201° Southwest  Level Estimated
08:21AM 34.1606 119.9546 201° Southwest  Level Estimated
08:22AM 34.0601 119.9079 201° Southwest  Level Estimated
08:23AM 33.9595 119.8613 201° Southwest  Level Estimated
08:24AM 33.8590 119.8148 201° Southwest  Level Estimated
08:25AM 33.7584 119.7684 201° Southwest  Level Estimated
08:26AM 33.6578 119.7221 201° Southwest  Level Estimated
08:27AM 33.5572 119.6759 201° Southwest  Level Estimated
08:28AM 33.4565 119.6299 201° Southwest  Level Estimated
08:29AM 33.3559 119.5839 201° Southwest  Level Estimated
08:30AM 33.2552 119.5380 201° Southwest  Level Estimated
08:31AM 33.1545 119.4923 201° Southwest  Level Estimated
08:32AM 33.0538 119.4466 201° Southwest  Level Estimated
08:33AM 32.9531 119.4011 201° Southwest  Level Estimated
08:34AM 32.8523 119.3557 201° Southwest  Level Estimated
08:35AM 32.7516 119.3103 201° Southwest  Level Estimated
08:36AM 32.6508 119.2651 201° Southwest  Level Estimated
08:37AM 32.5500 119.2200 201° Southwest  Level Estimated
08:38AM 32.4492 119.1749 201° Southwest  Level Estimated
08:39AM 32.3484 119.1300 201° Southwest  Level Estimated
08:40AM 32.2476 119.0852 201° Southwest  Level Estimated
08:41AM 32.1467 119.0404 201° Southwest  Level Estimated
08:42AM 32.0458 118.9958 201° Southwest  Level Estimated
08:43AM 31.9450 118.9513 201° Southwest  Level Estimated
08:44AM 31.8440 118.9068 201° Southwest  Level Estimated
08:45AM 31.7431 118.8625 200° South  Level Estimated
08:46AM 31.7421 118.8620 200° South  Level Estimated
08:47AM 31.7421 118.8620 270° West  Level Estimated
08:48AM 31.7421 118.8620 270° West  Level Estimated
08:49AM 31.7421 118.8620 270° West  Level Estimated
08:50AM 31.7421 118.8620 270° West  Level Estimated
08:51AM 31.7421 118.8620 270° West  Level Estimated
08:52AM 31.7421 118.8620 270° West  Level Estimated
08:53AM 31.7421 118.8620 270° West  Level Estimated
08:54AM 31.7421 118.8620 270° West  Level Estimated
08:55AM 31.7421 118.8620 270° West  Level Estimated
08:56AM 31.7421 118.8620 270° West  Level Estimated
08:57AM 31.7421 118.8620 270° West  Level Estimated
08:58AM 31.7421 118.8620 270° West  Level Estimated
08:59AM 31.7421 118.8620 270° West  Level Estimated
09:00AM 31.7421 118.8620 270° West  Level Estimated
09:01AM 31.7421 118.8620 270° West  Level Estimated